createdAt,value
2022-11-29T00:16:06.013Z,95.2
2022-11-29T01:36:00.909Z,95.6
2022-11-29T01:56:05.905Z,95.6
2022-11-29T02:16:05.890Z,95.7
2022-11-29T02:36:05.821Z,95.8
2022-11-29T02:56:05.818Z,96
2022-11-29T03:56:05.708Z,96.1
2022-11-29T04:16:05.687Z,96.2
2022-11-29T04:36:05.629Z,96.3
2022-11-29T04:56:05.650Z,96.4
2022-11-29T05:16:00.715Z,96.5
2022-11-29T05:36:12.574Z,96.6
2022-11-29T05:56:12.536Z,96.8
2022-11-29T06:16:12.566Z,96.9
2022-11-29T06:36:05.453Z,97.1
2022-11-29T06:56:05.425Z,97.2
2022-11-29T07:16:12.718Z,97.5
2022-11-29T07:36:05.397Z,97.7
2022-11-29T07:56:00.400Z,97.9
2022-11-29T08:16:00.370Z,97.9
2022-11-29T08:36:05.315Z,98
2022-11-29T08:56:17.233Z,98
2022-11-29T09:16:05.357Z,98
2022-11-29T09:36:05.195Z,97.8
2022-11-29T09:56:00.230Z,97.8
2022-11-29T10:16:05.190Z,97.7
2022-11-29T10:36:05.104Z,97.5
2022-11-29T10:56:05.166Z,97.5
2022-11-29T11:16:05.050Z,97.5
2022-11-29T11:36:00.082Z,97.2
2022-11-29T11:56:05.024Z,97.2
2022-11-29T12:16:05.004Z,97.1
2022-11-29T12:35:59.935Z,97
2022-11-29T12:56:04.895Z,96.9
2022-11-29T13:16:04.919Z,96.8
2022-11-29T13:36:04.862Z,96.8
2022-11-29T13:55:59.839Z,96.7
2022-11-29T14:15:59.824Z,96.5
2022-11-29T14:36:04.712Z,96.5
2022-11-29T14:56:04.688Z,96.8
2022-11-29T15:16:09.006Z,97.4
2022-11-29T15:36:04.622Z,97.8
2022-11-29T15:56:04.594Z,98.1
2022-11-29T16:16:04.646Z,98.2
2022-11-29T16:36:04.520Z,98.4
2022-11-29T16:56:04.497Z,98.4
2022-11-29T17:16:04.842Z,98.4
2022-11-29T17:36:04.448Z,98.5
2022-11-29T17:56:04.460Z,98.6
2022-11-29T18:16:04.393Z,98.5
2022-11-29T18:35:59.364Z,98.4
2022-11-29T18:56:04.401Z,98.4
2022-11-29T19:16:04.306Z,98.2
2022-11-29T19:36:04.281Z,98.1
2022-11-29T19:55:59.544Z,97.9
2022-11-29T20:36:04.148Z,97.6
2022-11-29T20:55:59.148Z,97.3
2022-11-29T21:16:04.156Z,97
2022-11-29T21:35:59.080Z,96.6
2022-11-29T21:56:04.030Z,96.2
2022-11-29T22:16:04.016Z,95.9
2022-11-29T22:36:04.008Z,95.7
2022-11-29T23:16:03.958Z,95.5
2022-11-29T23:36:03.865Z,95.4
2022-11-29T23:56:03.830Z,95.4
